sensor_id;sensor_type;location;lat;lon;timestamp;temperature;humidity
40556;DHT22;26250;45.422;11.100;2022-07-01T00:00:04;28.40;68.30
40556;DHT22;26250;45.422;11.100;2022-07-01T00:02:38;28.40;68.10
40556;DHT22;26250;45.422;11.100;2022-07-01T00:05:05;28.40;68.00
40556;DHT22;26250;45.422;11.100;2022-07-01T00:07:45;28.40;67.80
40556;DHT22;26250;45.422;11.100;2022-07-01T00:10:12;28.40;67.60
40556;DHT22;26250;45.422;11.100;2022-07-01T00:12:40;28.40;67.70
40556;DHT22;26250;45.422;11.100;2022-07-01T00:15:07;28.30;68.00
40556;DHT22;26250;45.422;11.100;2022-07-01T00:17:35;28.20;68.20
40556;DHT22;26250;45.422;11.100;2022-07-01T00:20:03;28.20;68.10
40556;DHT22;26250;45.422;11.100;2022-07-01T00:22:30;28.20;68.00
40556;DHT22;26250;45.422;11.100;2022-07-01T00:24:57;28.30;68.60
40556;DHT22;26250;45.422;11.100;2022-07-01T00:27:24;28.30;67.60
40556;DHT22;26250;45.422;11.100;2022-07-01T00:29:51;28.40;67.60
40556;DHT22;26250;45.422;11.100;2022-07-01T00:32:18;28.40;67.60
40556;DHT22;26250;45.422;11.100;2022-07-01T00:34:45;28.50;67.60
40556;DHT22;26250;45.422;11.100;2022-07-01T00:37:12;28.50;67.90
40556;DHT22;26250;45.422;11.100;2022-07-01T00:39:39;28.50;68.10
40556;DHT22;26250;45.422;11.100;2022-07-01T00:42:07;28.40;68.30
40556;DHT22;26250;45.422;11.100;2022-07-01T00:44:33;28.30;68.60
40556;DHT22;26250;45.422;11.100;2022-07-01T00:47:03;28.30;68.60
40556;DHT22;26250;45.422;11.100;2022-07-01T00:49:30;28.30;69.10
40556;DHT22;26250;45.422;11.100;2022-07-01T00:51:59;28.30;69.00
40556;DHT22;26250;45.422;11.100;2022-07-01T00:54:26;28.20;69.50
40556;DHT22;26250;45.422;11.100;2022-07-01T00:56:54;28.20;69.70
40556;DHT22;26250;45.422;11.100;2022-07-01T00:59:20;27.90;70.50
40556;DHT22;26250;45.422;11.100;2022-07-01T01:01:48;28.00;70.60
40556;DHT22;26250;45.422;11.100;2022-07-01T01:04:15;27.90;71.10
40556;DHT22;26250;45.422;11.100;2022-07-01T01:06:42;27.70;71.50
40556;DHT22;26250;45.422;11.100;2022-07-01T01:09:08;27.60;71.20
40556;DHT22;26250;45.422;11.100;2022-07-01T01:11:36;27.80;70.80
40556;DHT22;26250;45.422;11.100;2022-07-01T01:14:03;27.70;71.40
40556;DHT22;26250;45.422;11.100;2022-07-01T01:16:30;27.60;71.70
40556;DHT22;26250;45.422;11.100;2022-07-01T01:18:57;27.50;72.00
40556;DHT22;26250;45.422;11.100;2022-07-01T01:21:24;27.60;71.60
40556;DHT22;26250;45.422;11.100;2022-07-01T01:23:51;27.50;72.20
40556;DHT22;26250;45.422;11.100;2022-07-01T01:26:20;27.40;72.40
40556;DHT22;26250;45.422;11.100;2022-07-01T01:28:49;27.40;72.30
40556;DHT22;26250;45.422;11.100;2022-07-01T01:31:17;27.50;72.30
40556;DHT22;26250;45.422;11.100;2022-07-01T01:33:46;27.50;72.10
40556;DHT22;26250;45.422;11.100;2022-07-01T01:36:12;27.50;71.80
40556;DHT22;26250;45.422;11.100;2022-07-01T01:38:39;27.40;72.00
40556;DHT22;26250;45.422;11.100;2022-07-01T01:41:06;27.50;72.20
40556;DHT22;26250;45.422;11.100;2022-07-01T01:43:36;27.40;72.40
40556;DHT22;26250;45.422;11.100;2022-07-01T01:46:03;27.40;72.50
40556;DHT22;26250;45.422;11.100;2022-07-01T01:48:31;27.30;72.40
40556;DHT22;26250;45.422;11.100;2022-07-01T01:50:58;27.40;72.10
40556;DHT22;26250;45.422;11.100;2022-07-01T01:53:25;27.40;72.30
40556;DHT22;26250;45.422;11.100;2022-07-01T01:55:52;27.20;72.80
40556;DHT22;26250;45.422;11.100;2022-07-01T01:58:20;27.20;72.90
40556;DHT22;26250;45.422;11.100;2022-07-01T02:00:46;27.20;73.20
40556;DHT22;26250;45.422;11.100;2022-07-01T02:03:14;27.20;73.40
40556;DHT22;26250;45.422;11.100;2022-07-01T02:05:43;27.20;73.70
40556;DHT22;26250;45.422;11.100;2022-07-01T02:08:13;27.20;73.30
40556;DHT22;26250;45.422;11.100;2022-07-01T02:10:43;27.20;73.00
40556;DHT22;26250;45.422;11.100;2022-07-01T02:13:11;27.20;73.10
40556;DHT22;26250;45.422;11.100;2022-07-01T02:15:37;27.20;73.10
40556;DHT22;26250;45.422;11.100;2022-07-01T02:18:06;27.10;73.30
40556;DHT22;26250;45.422;11.100;2022-07-01T02:20:33;27.10;73.80
40556;DHT22;26250;45.422;11.100;2022-07-01T02:23:00;27.00;73.70
40556;DHT22;26250;45.422;11.100;2022-07-01T02:25:27;27.00;73.90
40556;DHT22;26250;45.422;11.100;2022-07-01T02:27:54;27.00;74.10
40556;DHT22;26250;45.422;11.100;2022-07-01T02:30:21;26.90;74.50
40556;DHT22;26250;45.422;11.100;2022-07-01T02:32:48;26.90;74.10
40556;DHT22;26250;45.422;11.100;2022-07-01T02:35:18;27.00;73.90
40556;DHT22;26250;45.422;11.100;2022-07-01T02:37:45;27.00;73.60
40556;DHT22;26250;45.422;11.100;2022-07-01T02:40:12;27.00;73.30
40556;DHT22;26250;45.422;11.100;2022-07-01T02:42:40;27.10;73.40
40556;DHT22;26250;45.422;11.100;2022-07-01T02:45:07;27.00;73.40
40556;DHT22;26250;45.422;11.100;2022-07-01T02:47:39;26.90;73.70
40556;DHT22;26250;45.422;11.100;2022-07-01T02:50:10;26.90;73.70
40556;DHT22;26250;45.422;11.100;2022-07-01T02:52:38;26.90;73.50
40556;DHT22;26250;45.422;11.100;2022-07-01T02:55:08;26.90;73.70
40556;DHT22;26250;45.422;11.100;2022-07-01T02:57:36;26.90;73.90
40556;DHT22;26250;45.422;11.100;2022-07-01T03:00:07;26.80;74.00
40556;DHT22;26250;45.422;11.100;2022-07-01T03:02:35;26.80;73.80
40556;DHT22;26250;45.422;11.100;2022-07-01T03:05:03;26.80;73.40
40556;DHT22;26250;45.422;11.100;2022-07-01T03:07:30;26.80;72.90
40556;DHT22;26250;45.422;11.100;2022-07-01T03:09:57;26.90;71.20
40556;DHT22;26250;45.422;11.100;2022-07-01T03:12:24;26.90;71.40
40556;DHT22;26250;45.422;11.100;2022-07-01T03:14:52;27.00;71.50
40556;DHT22;26250;45.422;11.100;2022-07-01T03:17:19;27.00;70.20
40556;DHT22;26250;45.422;11.100;2022-07-01T03:19:46;27.10;70.00
40556;DHT22;26250;45.422;11.100;2022-07-01T03:22:15;27.10;69.40
40556;DHT22;26250;45.422;11.100;2022-07-01T03:24:42;27.10;69.20
40556;DHT22;26250;45.422;11.100;2022-07-01T03:27:10;27.00;69.00
40556;DHT22;26250;45.422;11.100;2022-07-01T03:29:36;27.10;69.00
40556;DHT22;26250;45.422;11.100;2022-07-01T03:32:06;27.10;68.60
40556;DHT22;26250;45.422;11.100;2022-07-01T03:34:37;27.10;68.40
40556;DHT22;26250;45.422;11.100;2022-07-01T03:37:05;27.20;68.10
40556;DHT22;26250;45.422;11.100;2022-07-01T03:39:34;27.20;67.60
40556;DHT22;26250;45.422;11.100;2022-07-01T03:42:02;27.30;67.20
40556;DHT22;26250;45.422;11.100;2022-07-01T03:44:31;27.40;68.50
40556;DHT22;26250;45.422;11.100;2022-07-01T03:46:58;27.40;68.50
40556;DHT22;26250;45.422;11.100;2022-07-01T03:49:25;27.40;68.40
40556;DHT22;26250;45.422;11.100;2022-07-01T03:51:52;27.50;68.60
40556;DHT22;26250;45.422;11.100;2022-07-01T03:54:22;27.50;68.40
40556;DHT22;26250;45.422;11.100;2022-07-01T03:57:07;27.60;68.40
40556;DHT22;26250;45.422;11.100;2022-07-01T03:59:36;27.60;68.90
40556;DHT22;26250;45.422;11.100;2022-07-01T04:02:05;27.50;69.80
40556;DHT22;26250;45.422;11.100;2022-07-01T04:04:32;27.50;70.00
40556;DHT22;26250;45.422;11.100;2022-07-01T04:07:02;27.50;69.90
40556;DHT22;26250;45.422;11.100;2022-07-01T04:09:30;27.60;70.40
40556;DHT22;26250;45.422;11.100;2022-07-01T04:11:57;27.80;69.00
40556;DHT22;26250;45.422;11.100;2022-07-01T04:14:24;27.80;68.80
40556;DHT22;26250;45.422;11.100;2022-07-01T04:16:51;27.80;69.70
40556;DHT22;26250;45.422;11.100;2022-07-01T04:19:19;27.70;69.70
40556;DHT22;26250;45.422;11.100;2022-07-01T04:21:46;27.60;70.00
40556;DHT22;26250;45.422;11.100;2022-07-01T04:24:31;27.60;70.70
40556;DHT22;26250;45.422;11.100;2022-07-01T04:27:00;27.40;71.60
40556;DHT22;26250;45.422;11.100;2022-07-01T04:29:28;27.40;71.60
40556;DHT22;26250;45.422;11.100;2022-07-01T04:31:58;27.60;71.20
40556;DHT22;26250;45.422;11.100;2022-07-01T04:34:25;28.00;70.70
40556;DHT22;26250;45.422;11.100;2022-07-01T04:36:52;28.40;69.50
40556;DHT22;26250;45.422;11.100;2022-07-01T04:39:19;28.70;68.80
40556;DHT22;26250;45.422;11.100;2022-07-01T04:41:49;29.00;68.40
40556;DHT22;26250;45.422;11.100;2022-07-01T04:44:30;29.00;68.40
40556;DHT22;26250;45.422;11.100;2022-07-01T04:46:58;28.90;68.50
40556;DHT22;26250;45.422;11.100;2022-07-01T04:49:26;29.00;68.50
40556;DHT22;26250;45.422;11.100;2022-07-01T04:51:54;28.90;69.20
40556;DHT22;26250;45.422;11.100;2022-07-01T04:54:21;28.90;69.50
40556;DHT22;26250;45.422;11.100;2022-07-01T04:56:51;28.90;70.10
40556;DHT22;26250;45.422;11.100;2022-07-01T04:59:19;28.80;70.70
40556;DHT22;26250;45.422;11.100;2022-07-01T05:01:47;28.70;71.10
40556;DHT22;26250;45.422;11.100;2022-07-01T05:04:17;28.60;71.80
40556;DHT22;26250;45.422;11.100;2022-07-01T05:06:45;28.60;72.40
40556;DHT22;26250;45.422;11.100;2022-07-01T05:09:15;28.50;72.60
40556;DHT22;26250;45.422;11.100;2022-07-01T05:11:42;28.50;72.80
40556;DHT22;26250;45.422;11.100;2022-07-01T05:14:09;28.40;72.90
40556;DHT22;26250;45.422;11.100;2022-07-01T05:16:36;28.40;73.40
40556;DHT22;26250;45.422;11.100;2022-07-01T05:19:03;28.40;74.00
40556;DHT22;26250;45.422;11.100;2022-07-01T05:21:49;28.30;74.30
40556;DHT22;26250;45.422;11.100;2022-07-01T05:24:30;28.40;74.20
40556;DHT22;26250;45.422;11.100;2022-07-01T05:26:59;28.80;73.50
40556;DHT22;26250;45.422;11.100;2022-07-01T05:29:26;29.10;72.00
40556;DHT22;26250;45.422;11.100;2022-07-01T05:31:54;29.50;70.70
40556;DHT22;26250;45.422;11.100;2022-07-01T05:34:21;29.80;69.70
40556;DHT22;26250;45.422;11.100;2022-07-01T05:36:48;30.00;69.50
40556;DHT22;26250;45.422;11.100;2022-07-01T05:39:17;30.20;69.10
40556;DHT22;26250;45.422;11.100;2022-07-01T05:41:44;30.50;67.40
40556;DHT22;26250;45.422;11.100;2022-07-01T05:44:12;30.70;66.10
40556;DHT22;26250;45.422;11.100;2022-07-01T05:46:39;30.90;65.80
40556;DHT22;26250;45.422;11.100;2022-07-01T05:49:06;31.10;65.70
40556;DHT22;26250;45.422;11.100;2022-07-01T05:51:33;31.20;65.10
40556;DHT22;26250;45.422;11.100;2022-07-01T05:54:00;31.40;63.80
40556;DHT22;26250;45.422;11.100;2022-07-01T05:56:27;31.50;63.70
40556;DHT22;26250;45.422;11.100;2022-07-01T05:58:54;31.50;63.50
40556;DHT22;26250;45.422;11.100;2022-07-01T06:01:22;31.60;63.80
40556;DHT22;26250;45.422;11.100;2022-07-01T06:03:49;31.70;63.50
40556;DHT22;26250;45.422;11.100;2022-07-01T06:06:16;31.80;62.90
40556;DHT22;26250;45.422;11.100;2022-07-01T06:08:48;32.00;62.40
40556;DHT22;26250;45.422;11.100;2022-07-01T06:11:15;32.10;62.40
40556;DHT22;26250;45.422;11.100;2022-07-01T06:13:42;32.30;61.50
40556;DHT22;26250;45.422;11.100;2022-07-01T06:16:09;32.40;61.10
40556;DHT22;26250;45.422;11.100;2022-07-01T06:18:36;32.50;60.70
40556;DHT22;26250;45.422;11.100;2022-07-01T06:21:03;32.50;60.80
40556;DHT22;26250;45.422;11.100;2022-07-01T06:23:30;32.50;60.70
40556;DHT22;26250;45.422;11.100;2022-07-01T06:25:57;32.50;61.00
40556;DHT22;26250;45.422;11.100;2022-07-01T06:28:24;32.50;60.80
40556;DHT22;26250;45.422;11.100;2022-07-01T06:30:57;32.60;60.90
40556;DHT22;26250;45.422;11.100;2022-07-01T06:33:25;32.70;61.00
40556;DHT22;26250;45.422;11.100;2022-07-01T06:35:53;32.70;61.20
40556;DHT22;26250;45.422;11.100;2022-07-01T06:38:20;32.60;61.60
40556;DHT22;26250;45.422;11.100;2022-07-01T06:40:47;32.50;61.50
40556;DHT22;26250;45.422;11.100;2022-07-01T06:43:34;32.50;61.80
40556;DHT22;26250;45.422;11.100;2022-07-01T06:46:02;32.50;62.10
40556;DHT22;26250;45.422;11.100;2022-07-01T06:48:29;32.50;62.30
40556;DHT22;26250;45.422;11.100;2022-07-01T06:50:56;32.50;62.10
40556;DHT22;26250;45.422;11.100;2022-07-01T06:53:23;32.40;62.40
40556;DHT22;26250;45.422;11.100;2022-07-01T06:55:50;32.40;62.60
40556;DHT22;26250;45.422;11.100;2022-07-01T06:58:17;32.40;62.70
40556;DHT22;26250;45.422;11.100;2022-07-01T07:00:44;32.30;63.50
40556;DHT22;26250;45.422;11.100;2022-07-01T07:03:12;32.30;64.20
40556;DHT22;26250;45.422;11.100;2022-07-01T07:05:39;32.30;63.50
40556;DHT22;26250;45.422;11.100;2022-07-01T07:08:06;32.30;62.60
40556;DHT22;26250;45.422;11.100;2022-07-01T07:10:33;32.20;62.30
40556;DHT22;26250;45.422;11.100;2022-07-01T07:13:00;32.10;63.60
40556;DHT22;26250;45.422;11.100;2022-07-01T07:15:27;32.00;64.50
40556;DHT22;26250;45.422;11.100;2022-07-01T07:17:54;32.00;64.40
40556;DHT22;26250;45.422;11.100;2022-07-01T07:20:25;31.90;64.40
40556;DHT22;26250;45.422;11.100;2022-07-01T07:22:53;31.80;64.10
40556;DHT22;26250;45.422;11.100;2022-07-01T07:25:20;31.80;64.30
40556;DHT22;26250;45.422;11.100;2022-07-01T07:27:47;31.80;64.60
40556;DHT22;26250;45.422;11.100;2022-07-01T07:30:14;31.70;64.00
40556;DHT22;26250;45.422;11.100;2022-07-01T07:32:41;31.60;63.30
40556;DHT22;26250;45.422;11.100;2022-07-01T07:35:09;31.60;63.70
40556;DHT22;26250;45.422;11.100;2022-07-01T07:37:36;31.60;64.40
40556;DHT22;26250;45.422;11.100;2022-07-01T07:40:04;31.60;63.80
40556;DHT22;26250;45.422;11.100;2022-07-01T07:42:33;31.60;63.50
40556;DHT22;26250;45.422;11.100;2022-07-01T07:45:00;31.60;62.80
40556;DHT22;26250;45.422;11.100;2022-07-01T07:47:28;31.60;63.10
40556;DHT22;26250;45.422;11.100;2022-07-01T07:49:55;31.60;63.10
40556;DHT22;26250;45.422;11.100;2022-07-01T07:52:22;31.50;62.50
40556;DHT22;26250;45.422;11.100;2022-07-01T07:54:48;31.50;62.60
40556;DHT22;26250;45.422;11.100;2022-07-01T07:57:16;31.50;62.10
40556;DHT22;26250;45.422;11.100;2022-07-01T07:59:43;31.40;62.60
40556;DHT22;26250;45.422;11.100;2022-07-01T08:02:10;31.50;61.50
40556;DHT22;26250;45.422;11.100;2022-07-01T08:04:37;31.40;61.60
40556;DHT22;26250;45.422;11.100;2022-07-01T08:07:04;31.40;61.40
40556;DHT22;26250;45.422;11.100;2022-07-01T08:09:31;31.40;61.70
40556;DHT22;26250;45.422;11.100;2022-07-01T08:12:02;31.40;62.60
40556;DHT22;26250;45.422;11.100;2022-07-01T08:14:29;31.50;62.40
40556;DHT22;26250;45.422;11.100;2022-07-01T08:16:56;31.50;62.00
40556;DHT22;26250;45.422;11.100;2022-07-01T08:19:23;31.50;62.30
40556;DHT22;26250;45.422;11.100;2022-07-01T08:21:50;31.50;62.20
40556;DHT22;26250;45.422;11.100;2022-07-01T08:24:17;31.50;62.20
40556;DHT22;26250;45.422;11.100;2022-07-01T08:26:44;31.60;62.10
40556;DHT22;26250;45.422;11.100;2022-07-01T08:29:11;31.70;61.70
40556;DHT22;26250;45.422;11.100;2022-07-01T08:31:38;31.60;61.60
40556;DHT22;26250;45.422;11.100;2022-07-01T08:34:05;31.70;61.70
40556;DHT22;26250;45.422;11.100;2022-07-01T08:36:32;31.60;62.10
40556;DHT22;26250;45.422;11.100;2022-07-01T08:38:59;31.70;61.80
40556;DHT22;26250;45.422;11.100;2022-07-01T08:41:26;31.80;62.00
40556;DHT22;26250;45.422;11.100;2022-07-01T08:43:53;32.00;61.60
40556;DHT22;26250;45.422;11.100;2022-07-01T08:46:22;32.00;61.50
40556;DHT22;26250;45.422;11.100;2022-07-01T08:48:49;32.00;61.40
40556;DHT22;26250;45.422;11.100;2022-07-01T08:51:16;32.00;61.50
40556;DHT22;26250;45.422;11.100;2022-07-01T08:53:43;32.00;61.60
40556;DHT22;26250;45.422;11.100;2022-07-01T08:56:10;32.00;61.40
40556;DHT22;26250;45.422;11.100;2022-07-01T08:58:57;31.90;62.40
40556;DHT22;26250;45.422;11.100;2022-07-01T09:01:25;31.90;62.30
40556;DHT22;26250;45.422;11.100;2022-07-01T09:03:55;32.00;62.40
40556;DHT22;26250;45.422;11.100;2022-07-01T09:06:27;31.90;62.80
40556;DHT22;26250;45.422;11.100;2022-07-01T09:09:13;31.90;62.00
40556;DHT22;26250;45.422;11.100;2022-07-01T09:11:48;32.00;61.90
40556;DHT22;26250;45.422;11.100;2022-07-01T09:14:24;32.00;61.60
40556;DHT22;26250;45.422;11.100;2022-07-01T09:16:59;31.80;62.20
40556;DHT22;26250;45.422;11.100;2022-07-01T09:19:28;31.70;62.70
40556;DHT22;26250;45.422;11.100;2022-07-01T09:21:57;31.80;62.50
40556;DHT22;26250;45.422;11.100;2022-07-01T09:24:34;31.80;62.10
40556;DHT22;26250;45.422;11.100;2022-07-01T09:27:07;31.90;62.40
40556;DHT22;26250;45.422;11.100;2022-07-01T09:29:45;31.80;61.80
40556;DHT22;26250;45.422;11.100;2022-07-01T09:32:17;31.80;61.40
40556;DHT22;26250;45.422;11.100;2022-07-01T09:34:49;31.70;60.40
40556;DHT22;26250;45.422;11.100;2022-07-01T09:37:17;31.60;60.90
40556;DHT22;26250;45.422;11.100;2022-07-01T09:39:48;31.60;60.70
40556;DHT22;26250;45.422;11.100;2022-07-01T09:42:19;31.80;61.10
40556;DHT22;26250;45.422;11.100;2022-07-01T09:47:29;31.80;58.30
40556;DHT22;26250;45.422;11.100;2022-07-01T09:49:56;31.90;58.40
40556;DHT22;26250;45.422;11.100;2022-07-01T09:52:24;32.00;58.10
40556;DHT22;26250;45.422;11.100;2022-07-01T09:54:52;32.00;57.40
40556;DHT22;26250;45.422;11.100;2022-07-01T09:57:21;32.00;57.40
40556;DHT22;26250;45.422;11.100;2022-07-01T09:59:51;32.10;58.70
40556;DHT22;26250;45.422;11.100;2022-07-01T10:02:18;32.10;59.50
40556;DHT22;26250;45.422;11.100;2022-07-01T10:05:11;32.20;59.40
40556;DHT22;26250;45.422;11.100;2022-07-01T10:12:47;32.50;58.30
40556;DHT22;26250;45.422;11.100;2022-07-01T10:15:18;32.40;58.30
40556;DHT22;26250;45.422;11.100;2022-07-01T10:17:50;32.40;58.10
40556;DHT22;26250;45.422;11.100;2022-07-01T10:20:26;32.30;56.90
40556;DHT22;26250;45.422;11.100;2022-07-01T10:23:02;32.30;58.70
40556;DHT22;26250;45.422;11.100;2022-07-01T10:30:59;32.30;58.70
40556;DHT22;26250;45.422;11.100;2022-07-01T10:33:38;32.30;58.10
40556;DHT22;26250;45.422;11.100;2022-07-01T10:36:28;32.20;57.90
40556;DHT22;26250;45.422;11.100;2022-07-01T10:41:33;32.20;55.20
40556;DHT22;26250;45.422;11.100;2022-07-01T10:44:04;32.30;55.70
40556;DHT22;26250;45.422;11.100;2022-07-01T10:46:39;32.50;56.40
40556;DHT22;26250;45.422;11.100;2022-07-01T10:49:08;32.60;55.40
40556;DHT22;26250;45.422;11.100;2022-07-01T10:51:54;32.70;56.90
40556;DHT22;26250;45.422;11.100;2022-07-01T10:54:51;32.60;57.10
40556;DHT22;26250;45.422;11.100;2022-07-01T10:58:02;32.50;56.30
40556;DHT22;26250;45.422;11.100;2022-07-01T11:02:38;32.70;55.00
40556;DHT22;26250;45.422;11.100;2022-07-01T11:05:11;32.90;53.90
40556;DHT22;26250;45.422;11.100;2022-07-01T11:07:40;33.00;54.70
40556;DHT22;26250;45.422;11.100;2022-07-01T11:10:09;33.00;53.90
40556;DHT22;26250;45.422;11.100;2022-07-01T11:12:40;33.00;54.10
40556;DHT22;26250;45.422;11.100;2022-07-01T11:15:08;33.10;53.40
40556;DHT22;26250;45.422;11.100;2022-07-01T11:17:42;33.20;53.50
40556;DHT22;26250;45.422;11.100;2022-07-01T11:20:10;33.30;53.80
40556;DHT22;26250;45.422;11.100;2022-07-01T11:22:39;33.30;52.70
40556;DHT22;26250;45.422;11.100;2022-07-01T11:25:08;33.30;52.60
40556;DHT22;26250;45.422;11.100;2022-07-01T11:27:37;33.30;53.00
40556;DHT22;26250;45.422;11.100;2022-07-01T11:30:10;33.30;52.50
40556;DHT22;26250;45.422;11.100;2022-07-01T11:32:49;33.30;54.00
40556;DHT22;26250;45.422;11.100;2022-07-01T11:35:28;33.10;54.10
40556;DHT22;26250;45.422;11.100;2022-07-01T11:38:25;33.00;54.20
40556;DHT22;26250;45.422;11.100;2022-07-01T11:41:23;33.00;53.50
40556;DHT22;26250;45.422;11.100;2022-07-01T11:43:52;32.90;52.70
40556;DHT22;26250;45.422;11.100;2022-07-01T11:46:20;33.00;53.00
40556;DHT22;26250;45.422;11.100;2022-07-01T11:48:49;33.20;51.60
40556;DHT22;26250;45.422;11.100;2022-07-01T11:51:19;33.40;51.20
40556;DHT22;26250;45.422;11.100;2022-07-01T11:53:51;33.40;51.40
40556;DHT22;26250;45.422;11.100;2022-07-01T11:56:34;33.30;50.70
40556;DHT22;26250;45.422;11.100;2022-07-01T11:59:03;33.30;51.00
40556;DHT22;26250;45.422;11.100;2022-07-01T12:01:32;33.40;50.80
40556;DHT22;26250;45.422;11.100;2022-07-01T12:04:08;33.50;50.40
40556;DHT22;26250;45.422;11.100;2022-07-01T12:06:36;33.60;50.90
40556;DHT22;26250;45.422;11.100;2022-07-01T12:09:06;33.60;51.60
40556;DHT22;26250;45.422;11.100;2022-07-01T12:11:38;33.70;52.60
40556;DHT22;26250;45.422;11.100;2022-07-01T12:14:05;33.60;51.50
40556;DHT22;26250;45.422;11.100;2022-07-01T12:16:58;33.60;52.20
40556;DHT22;26250;45.422;11.100;2022-07-01T12:21:57;33.60;51.00
40556;DHT22;26250;45.422;11.100;2022-07-01T12:24:25;33.70;50.50
40556;DHT22;26250;45.422;11.100;2022-07-01T12:29:27;33.90;49.00
40556;DHT22;26250;45.422;11.100;2022-07-01T12:34:23;33.80;49.30
40556;DHT22;26250;45.422;11.100;2022-07-01T12:36:50;33.90;50.50
40556;DHT22;26250;45.422;11.100;2022-07-01T12:39:17;34.00;50.70
40556;DHT22;26250;45.422;11.100;2022-07-01T12:41:50;34.10;50.50
40556;DHT22;26250;45.422;11.100;2022-07-01T12:44:25;34.20;49.10
40556;DHT22;26250;45.422;11.100;2022-07-01T12:46:52;34.20;48.60
40556;DHT22;26250;45.422;11.100;2022-07-01T12:49:23;34.20;47.90
40556;DHT22;26250;45.422;11.100;2022-07-01T12:51:53;34.20;47.80
40556;DHT22;26250;45.422;11.100;2022-07-01T12:54:29;34.20;46.30
40556;DHT22;26250;45.422;11.100;2022-07-01T12:56:59;34.00;45.60
40556;DHT22;26250;45.422;11.100;2022-07-01T12:59:27;34.00;46.80
40556;DHT22;26250;45.422;11.100;2022-07-01T13:01:54;34.20;49.80
40556;DHT22;26250;45.422;11.100;2022-07-01T13:04:26;34.20;50.20
40556;DHT22;26250;45.422;11.100;2022-07-01T13:06:54;34.30;49.40
40556;DHT22;26250;45.422;11.100;2022-07-01T13:09:21;34.30;48.20
40556;DHT22;26250;45.422;11.100;2022-07-01T13:11:48;34.50;48.40
40556;DHT22;26250;45.422;11.100;2022-07-01T13:14:16;34.50;48.50
40556;DHT22;26250;45.422;11.100;2022-07-01T13:16:43;34.50;47.40
40556;DHT22;26250;45.422;11.100;2022-07-01T13:19:10;34.50;47.30
40556;DHT22;26250;45.422;11.100;2022-07-01T13:21:37;34.60;48.60
40556;DHT22;26250;45.422;11.100;2022-07-01T13:24:05;34.70;47.70
40556;DHT22;26250;45.422;11.100;2022-07-01T13:26:52;34.70;47.50
40556;DHT22;26250;45.422;11.100;2022-07-01T13:29:19;34.70;46.50
40556;DHT22;26250;45.422;11.100;2022-07-01T13:31:51;34.70;45.60
40556;DHT22;26250;45.422;11.100;2022-07-01T13:34:18;34.70;46.20
40556;DHT22;26250;45.422;11.100;2022-07-01T13:36:45;34.70;45.60
40556;DHT22;26250;45.422;11.100;2022-07-01T13:39:12;34.80;45.10
40556;DHT22;26250;45.422;11.100;2022-07-01T13:41:42;34.80;43.50
40556;DHT22;26250;45.422;11.100;2022-07-01T13:44:09;34.80;43.80
40556;DHT22;26250;45.422;11.100;2022-07-01T13:46:36;34.80;43.80
40556;DHT22;26250;45.422;11.100;2022-07-01T13:49:12;34.80;44.50
40556;DHT22;26250;45.422;11.100;2022-07-01T13:51:39;34.80;44.30
40556;DHT22;26250;45.422;11.100;2022-07-01T13:54:06;34.70;45.10
40556;DHT22;26250;45.422;11.100;2022-07-01T13:56:33;34.60;43.80
40556;DHT22;26250;45.422;11.100;2022-07-01T13:59:00;34.60;44.70
40556;DHT22;26250;45.422;11.100;2022-07-01T14:01:28;34.60;45.60
40556;DHT22;26250;45.422;11.100;2022-07-01T14:03:55;34.60;44.60
40556;DHT22;26250;45.422;11.100;2022-07-01T14:06:22;34.60;44.50
40556;DHT22;26250;45.422;11.100;2022-07-01T14:08:49;34.60;45.10
40556;DHT22;26250;45.422;11.100;2022-07-01T14:11:16;34.40;44.60
40556;DHT22;26250;45.422;11.100;2022-07-01T14:13:43;34.40;46.10
40556;DHT22;26250;45.422;11.100;2022-07-01T14:16:11;34.20;45.20
40556;DHT22;26250;45.422;11.100;2022-07-01T14:18:38;34.30;46.90
40556;DHT22;26250;45.422;11.100;2022-07-01T14:21:12;34.20;45.90
40556;DHT22;26250;45.422;11.100;2022-07-01T14:23:39;34.20;45.80
40556;DHT22;26250;45.422;11.100;2022-07-01T14:26:05;34.20;46.20
40556;DHT22;26250;45.422;11.100;2022-07-01T14:28:32;34.20;46.30
40556;DHT22;26250;45.422;11.100;2022-07-01T14:30:59;34.20;46.60
40556;DHT22;26250;45.422;11.100;2022-07-01T14:33:27;34.20;46.30
40556;DHT22;26250;45.422;11.100;2022-07-01T14:35:54;34.20;46.20
40556;DHT22;26250;45.422;11.100;2022-07-01T14:38:22;34.30;47.10
40556;DHT22;26250;45.422;11.100;2022-07-01T14:40:49;34.20;47.20
40556;DHT22;26250;45.422;11.100;2022-07-01T14:43:16;34.20;47.60
40556;DHT22;26250;45.422;11.100;2022-07-01T14:45:43;34.30;47.30
40556;DHT22;26250;45.422;11.100;2022-07-01T14:48:11;34.20;47.60
40556;DHT22;26250;45.422;11.100;2022-07-01T14:50:42;34.30;47.70
40556;DHT22;26250;45.422;11.100;2022-07-01T14:53:09;34.30;47.40
40556;DHT22;26250;45.422;11.100;2022-07-01T14:55:36;34.30;48.20
40556;DHT22;26250;45.422;11.100;2022-07-01T14:58:03;34.30;47.40
40556;DHT22;26250;45.422;11.100;2022-07-01T15:00:30;34.20;47.00
40556;DHT22;26250;45.422;11.100;2022-07-01T15:03:03;34.20;46.60
40556;DHT22;26250;45.422;11.100;2022-07-01T15:05:32;34.20;47.10
40556;DHT22;26250;45.422;11.100;2022-07-01T15:07:59;34.20;45.70
40556;DHT22;26250;45.422;11.100;2022-07-01T15:10:26;34.20;46.40
40556;DHT22;26250;45.422;11.100;2022-07-01T15:12:53;34.10;46.80
40556;DHT22;26250;45.422;11.100;2022-07-01T15:15:20;34.20;45.60
40556;DHT22;26250;45.422;11.100;2022-07-01T15:17:47;34.20;45.50
40556;DHT22;26250;45.422;11.100;2022-07-01T15:20:15;34.20;45.90
40556;DHT22;26250;45.422;11.100;2022-07-01T15:22:43;34.20;45.90
40556;DHT22;26250;45.422;11.100;2022-07-01T15:25:11;34.10;45.50
40556;DHT22;26250;45.422;11.100;2022-07-01T15:27:38;34.10;46.20
40556;DHT22;26250;45.422;11.100;2022-07-01T15:30:05;34.20;43.70
40556;DHT22;26250;45.422;11.100;2022-07-01T15:32:34;34.20;43.80
40556;DHT22;26250;45.422;11.100;2022-07-01T15:35:02;34.20;45.30
40556;DHT22;26250;45.422;11.100;2022-07-01T15:37:31;34.10;44.40
40556;DHT22;26250;45.422;11.100;2022-07-01T15:39:58;34.10;46.60
40556;DHT22;26250;45.422;11.100;2022-07-01T15:42:29;34.10;46.10
40556;DHT22;26250;45.422;11.100;2022-07-01T15:44:56;34.20;47.50
40556;DHT22;26250;45.422;11.100;2022-07-01T15:47:23;34.20;46.50
40556;DHT22;26250;45.422;11.100;2022-07-01T15:50:09;34.20;46.10
40556;DHT22;26250;45.422;11.100;2022-07-01T15:52:36;34.20;47.00